Time;durP1;ratioP1;P1;durP2;ratioP2;P2;SDS_P1;SDS_P2;PMS_P1;PMS_P2;Temp;Humidity;BMP_temperature;BMP_pressure;BME280_temperature;BME280_humidity;BME280_pressure;Samples;Min_cycle;Max_cycle;Signal;HPM_P1;HPM_P2
2021/10/04 00:01:46;;;;;;;3.27;2.70;;;15.00;99.90;;;;;;5081683;28;20192;-80
2021/10/04 00:04:12;;;;;;;3.50;2.40;;;15.00;99.90;;;;;;5082029;28;20173;-80
2021/10/04 00:06:38;;;;;;;4.87;2.13;;;15.00;99.90;;;;;;5081766;28;20184;-80
2021/10/04 00:09:03;;;;;;;2.87;2.30;;;15.00;99.90;;;;;;5083086;28;20678;-80
2021/10/04 00:11:29;;;;;;;4.57;2.57;;;15.00;99.90;;;;;;5079867;28;20180;-80
2021/10/04 00:13:55;;;;;;;2.80;2.50;;;15.00;99.90;;;;;;5079200;28;20181;-80
2021/10/04 00:16:21;;;;;;;3.63;2.80;;;15.00;99.90;;;;;;5080418;28;20738;-80
2021/10/04 00:18:47;;;;;;;2.70;2.37;;;15.10;99.90;;;;;;5082138;28;20558;-80
2021/10/04 00:21:13;;;;;;;3.53;2.90;;;15.10;99.90;;;;;;5089554;28;20208;-79
2021/10/04 00:23:39;;;;;;;2.93;2.63;;;15.10;99.90;;;;;;5091861;28;20177;-79
2021/10/04 00:26:05;;;;;;;3.30;2.50;;;15.10;99.90;;;;;;5091494;28;20661;-80
2021/10/04 00:28:31;;;;;;;3.17;2.53;;;15.10;99.90;;;;;;5081070;28;20651;-80
2021/10/04 00:30:56;;;;;;;3.00;2.70;;;15.10;99.90;;;;;;5081619;28;20181;-80
2021/10/04 00:33:22;;;;;;;3.70;2.50;;;15.10;99.90;;;;;;5081002;28;20241;-80
2021/10/04 00:35:48;;;;;;;2.80;2.30;;;15.00;99.90;;;;;;5079873;28;20181;-80
2021/10/04 00:38:13;;;;;;;2.40;2.20;;;15.00;99.90;;;;;;5081170;28;20205;-80
2021/10/04 00:40:39;;;;;;;2.77;2.47;;;15.00;99.90;;;;;;5079482;28;20272;-80
2021/10/04 00:43:05;;;;;;;2.70;2.30;;;15.00;99.90;;;;;;5079676;28;20584;-80
2021/10/04 00:45:31;;;;;;;4.67;2.30;;;15.00;99.90;;;;;;5079902;28;20256;-80
2021/10/04 00:47:58;;;;;;;3.20;2.23;;;15.00;99.90;;;;;;5080326;28;20614;-80
2021/10/04 00:50:26;;;;;;;3.13;2.13;;;15.00;99.90;;;;;;5078323;28;20193;-80
2021/10/04 00:52:52;;;;;;;2.73;2.43;;;15.00;99.90;;;;;;5079068;28;20177;-80
2021/10/04 00:55:19;;;;;;;4.40;2.30;;;15.00;99.90;;;;;;5079743;28;20639;-80
2021/10/04 00:57:45;;;;;;;4.83;2.37;;;15.00;99.90;;;;;;5077269;28;20282;-79
2021/10/04 01:00:14;;;;;;;2.60;2.33;;;14.90;99.90;;;;;;5075686;28;20681;-79
2021/10/04 01:02:40;;;;;;;3.33;2.60;;;14.90;99.90;;;;;;5076971;28;20278;-79
2021/10/04 01:05:08;;;;;;;3.57;2.77;;;14.90;99.90;;;;;;5077225;28;20177;-80
2021/10/04 01:07:33;;;;;;;5.23;2.60;;;14.80;99.90;;;;;;5078868;28;20278;-80
2021/10/04 01:09:59;;;;;;;4.93;2.70;;;14.80;99.90;;;;;;5080136;28;20642;-80
2021/10/04 01:12:25;;;;;;;2.97;2.33;;;14.80;99.90;;;;;;5078801;28;20638;-80
2021/10/04 01:14:51;;;;;;;3.50;2.40;;;14.80;99.90;;;;;;5078090;28;20204;-80
2021/10/04 01:17:17;;;;;;;2.67;2.37;;;14.80;99.90;;;;;;5078303;28;20181;-80
2021/10/04 01:19:42;;;;;;;3.53;2.57;;;14.80;99.90;;;;;;5079145;28;20164;-80
2021/10/04 01:22:09;;;;;;;3.23;1.93;;;14.80;99.90;;;;;;5079754;28;20630;-81
2021/10/04 01:24:35;;;;;;;3.07;2.07;;;14.80;99.90;;;;;;5079461;28;20173;-80
2021/10/04 01:27:01;;;;;;;2.60;1.93;;;14.80;99.90;;;;;;5079494;28;20219;-80
2021/10/04 01:29:27;;;;;;;2.73;2.17;;;14.70;99.90;;;;;;5079984;28;20185;-80
2021/10/04 01:31:53;;;;;;;2.97;2.00;;;14.70;99.90;;;;;;5078633;28;20172;-80
2021/10/04 01:34:18;;;;;;;2.20;2.00;;;14.60;99.90;;;;;;5078563;28;20583;-81
2021/10/04 01:36:44;;;;;;;2.37;1.80;;;14.60;99.90;;;;;;5077523;28;20181;-80
2021/10/04 01:39:10;;;;;;;1.90;1.70;;;14.60;99.90;;;;;;5078705;28;20242;-80
2021/10/04 01:41:35;;;;;;;2.83;2.43;;;14.60;99.90;;;;;;5077468;28;20258;-80
2021/10/04 01:44:01;;;;;;;2.13;1.83;;;14.60;99.90;;;;;;5078921;28;20177;-80
2021/10/04 01:46:27;;;;;;;1.83;1.50;;;14.60;99.90;;;;;;5077205;28;20173;-80
2021/10/04 01:48:52;;;;;;;2.23;1.70;;;14.70;99.90;;;;;;5079208;28;20192;-80
2021/10/04 01:51:18;;;;;;;2.30;1.53;;;14.60;99.90;;;;;;5079705;28;20188;-80
2021/10/04 01:53:44;;;;;;;2.67;1.33;;;14.60;99.90;;;;;;5079295;28;20187;-80
2021/10/04 01:56:10;;;;;;;2.73;1.90;;;14.50;99.90;;;;;;5079312;28;20573;-80
2021/10/04 01:58:36;;;;;;;1.73;1.40;;;14.50;99.90;;;;;;5078540;28;20608;-80
2021/10/04 02:01:04;;;;;;;2.57;1.40;;;14.50;99.90;;;;;;5077863;28;20231;-80
2021/10/04 02:03:29;;;;;;;1.57;1.27;;;14.50;99.90;;;;;;5076988;28;20666;-80
2021/10/04 02:05:56;;;;;;;1.40;1.30;;;14.40;99.90;;;;;;5077678;28;20192;-80
2021/10/04 02:08:23;;;;;;;1.60;1.20;;;14.40;99.90;;;;;;5078346;28;20189;-79
2021/10/04 02:10:48;;;;;;;1.70;1.37;;;14.40;99.90;;;;;;5078264;28;20180;-81
2021/10/04 02:13:14;;;;;;;1.27;1.17;;;14.40;99.90;;;;;;5079237;28;20595;-80
2021/10/04 02:15:41;;;;;;;2.60;1.30;;;14.40;99.90;;;;;;5077123;28;20192;-80
2021/10/04 02:18:08;;;;;;;1.97;1.30;;;14.30;99.90;;;;;;5090066;28;20189;-80
2021/10/04 02:20:36;;;;;;;1.93;1.20;;;14.30;99.90;;;;;;5088512;28;20212;-79
2021/10/04 02:23:06;;;;;;;1.50;1.30;;;14.20;99.90;;;;;;5085130;28;20200;-80
2021/10/04 02:25:52;;;;;;;2.33;1.40;;;14.20;99.90;;;;;;5076002;28;20184;-80
2021/10/04 02:28:18;;;;;;;1.53;1.20;;;14.20;99.90;;;;;;5076068;28;20551;-80
2021/10/04 02:30:45;;;;;;;2.27;1.10;;;14.20;99.90;;;;;;5077172;28;20184;-80
2021/10/04 02:33:11;;;;;;;1.40;1.23;;;14.20;99.90;;;;;;5075637;28;20180;-80
2021/10/04 02:35:38;;;;;;;3.40;1.40;;;14.20;99.90;;;;;;5076693;28;20177;-80
2021/10/04 02:38:04;;;;;;;1.30;1.10;;;14.10;99.90;;;;;;5075568;28;20196;-80
2021/10/04 02:40:30;;;;;;;2.07;1.10;;;14.10;99.90;;;;;;5075635;28;20208;-80
2021/10/04 02:42:56;;;;;;;1.30;0.93;;;14.10;99.90;;;;;;5074061;28;20531;-80
2021/10/04 02:45:23;;;;;;;1.30;1.20;;;14.10;99.90;;;;;;5074241;28;20227;-80
2021/10/04 02:47:51;;;;;;;1.30;1.10;;;14.00;99.90;;;;;;5076184;28;20557;-80
2021/10/04 02:50:19;;;;;;;1.40;1.10;;;13.90;99.90;;;;;;5076903;28;20530;-80
2021/10/04 02:52:45;;;;;;;1.20;1.10;;;13.80;99.90;;;;;;5076872;28;20180;-80
2021/10/04 02:55:11;;;;;;;2.07;0.90;;;13.80;99.90;;;;;;5076016;28;20169;-80
2021/10/04 02:57:37;;;;;;;2.10;1.00;;;13.80;99.90;;;;;;5076582;28;20275;-80
2021/10/04 03:00:06;;;;;;;1.30;1.20;;;13.80;99.90;;;;;;5076659;28;20169;-80
2021/10/04 03:02:31;;;;;;;1.10;1.00;;;13.80;99.90;;;;;;5075435;28;20571;-80
2021/10/04 03:04:57;;;;;;;1.20;1.10;;;13.70;99.90;;;;;;5076677;28;20263;-80
2021/10/04 03:07:23;;;;;;;1.47;1.07;;;13.70;99.90;;;;;;5074756;28;20688;-80
2021/10/04 03:09:48;;;;;;;1.60;0.80;;;13.60;99.90;;;;;;5076487;28;20173;-80
2021/10/04 03:12:14;;;;;;;1.00;0.87;;;13.60;99.90;;;;;;5074914;28;20604;-80
2021/10/04 03:14:39;;;;;;;1.03;0.80;;;13.60;99.90;;;;;;5074653;28;20541;-80
2021/10/04 03:17:05;;;;;;;1.30;0.90;;;13.50;99.90;;;;;;5076065;28;20572;-79
2021/10/04 03:19:31;;;;;;;5.30;1.23;;;13.50;99.90;;;;;;5075336;28;20187;-80
2021/10/04 03:21:56;;;;;;;0.80;0.73;;;13.50;99.90;;;;;;5076704;28;20295;-79
2021/10/04 03:24:22;;;;;;;1.30;0.90;;;13.50;99.90;;;;;;5075753;28;20184;-81
2021/10/04 03:26:48;;;;;;;1.10;0.87;;;13.50;99.90;;;;;;5076377;28;20180;-80
2021/10/04 03:29:16;;;;;;;3.97;1.00;;;13.40;99.90;;;;;;5078976;28;20272;-80
2021/10/04 03:31:43;;;;;;;1.00;0.90;;;13.40;99.90;;;;;;5080307;28;20245;-80
2021/10/04 03:34:10;;;;;;;1.50;0.80;;;13.40;99.90;;;;;;5079737;28;20188;-80
2021/10/04 03:36:35;;;;;;;0.90;0.90;;;13.40;99.90;;;;;;5080383;28;20243;-80
2021/10/04 03:39:02;;;;;;;2.00;0.90;;;13.40;99.90;;;;;;5080595;28;20636;-79
2021/10/04 03:41:28;;;;;;;0.90;0.90;;;13.40;99.90;;;;;;5078900;28;20204;-80
2021/10/04 03:43:54;;;;;;;2.27;1.23;;;13.40;99.90;;;;;;5078604;28;20183;-79
2021/10/04 03:46:20;;;;;;;1.30;1.20;;;13.40;99.90;;;;;;5078821;28;20207;-80
2021/10/04 03:48:46;;;;;;;3.40;1.17;;;13.40;99.90;;;;;;5079676;28;20551;-79
2021/10/04 03:51:11;;;;;;;1.00;0.90;;;13.40;99.90;;;;;;5078690;28;20230;-80
2021/10/04 03:53:37;;;;;;;1.10;0.97;;;13.40;99.90;;;;;;5078336;28;20190;-79
2021/10/04 03:56:04;;;;;;;1.10;1.00;;;13.40;99.90;;;;;;5077749;28;20177;-79
2021/10/04 03:58:29;;;;;;;1.67;1.00;;;13.40;99.90;;;;;;5078115;28;20247;-79
2021/10/04 04:00:55;;;;;;;0.80;0.80;;;13.40;99.90;;;;;;5078294;28;20200;-79
2021/10/04 04:03:21;;;;;;;0.70;0.70;;;13.40;99.90;;;;;;5079085;28;20165;-80
2021/10/04 04:05:46;;;;;;;1.13;0.90;;;13.40;99.90;;;;;;5079220;28;20169;-80
2021/10/04 04:08:12;;;;;;;1.03;0.80;;;13.40;99.90;;;;;;5080890;28;20216;-80
2021/10/04 04:10:38;;;;;;;1.50;0.90;;;13.40;99.90;;;;;;5080694;28;20184;-80
2021/10/04 04:13:03;;;;;;;1.63;0.90;;;13.40;99.90;;;;;;5078971;28;20267;-80
2021/10/04 04:15:29;;;;;;;1.17;1.07;;;13.30;99.90;;;;;;5084353;28;20563;-79
2021/10/04 04:17:55;;;;;;;0.83;0.73;;;13.40;99.90;;;;;;5092219;28;20197;-79
2021/10/04 04:20:22;;;;;;;2.17;0.80;;;13.40;99.90;;;;;;5092252;28;20205;-80
2021/10/04 04:22:48;;;;;;;0.90;0.90;;;13.30;99.90;;;;;;5081721;28;20184;-80
2021/10/04 04:25:14;;;;;;;1.20;0.77;;;13.30;99.90;;;;;;5078920;28;20176;-80
2021/10/04 04:27:41;;;;;;;1.67;1.10;;;13.40;99.90;;;;;;5080518;28;20242;-80
2021/10/04 04:30:09;;;;;;;1.00;0.90;;;13.40;99.90;;;;;;5080156;28;20169;-80
2021/10/04 04:32:35;;;;;;;1.10;0.90;;;13.40;99.90;;;;;;5081429;28;20196;-80
2021/10/04 04:35:05;;;;;;;1.03;0.80;;;13.30;99.90;;;;;;5083107;28;20179;-79
2021/10/04 04:37:32;;;;;;;2.27;0.90;;;13.30;99.90;;;;;;5079263;28;20212;-80
2021/10/04 04:39:58;;;;;;;0.80;0.77;;;13.30;99.90;;;;;;5077384;28;20638;-80
2021/10/04 04:42:25;;;;;;;1.10;0.70;;;13.30;99.90;;;;;;5080377;28;20181;-80
2021/10/04 04:44:51;;;;;;;0.90;0.73;;;13.30;99.90;;;;;;5078855;28;20183;-80
2021/10/04 04:47:17;;;;;;;1.47;0.93;;;13.30;99.90;;;;;;5079612;28;20172;-80
2021/10/04 04:49:43;;;;;;;1.30;0.93;;;13.30;99.90;;;;;;5080495;28;20184;-80
2021/10/04 04:52:08;;;;;;;1.53;0.90;;;13.30;99.90;;;;;;5078267;28;20188;-80
2021/10/04 04:54:34;;;;;;;1.27;1.00;;;13.20;99.90;;;;;;5077771;28;20188;-80
2021/10/04 04:57:01;;;;;;;1.33;1.07;;;13.20;99.90;;;;;;5077540;28;20181;-80
2021/10/04 04:59:27;;;;;;;2.20;1.20;;;13.20;99.90;;;;;;5079142;28;20189;-80
2021/10/04 05:01:53;;;;;;;1.10;1.00;;;13.20;99.90;;;;;;5078719;28;20254;-80
2021/10/04 05:04:19;;;;;;;1.03;0.93;;;13.20;99.90;;;;;;5078591;28;20169;-80
2021/10/04 05:06:45;;;;;;;1.30;0.93;;;13.20;99.90;;;;;;5079007;28;20169;-80
2021/10/04 05:09:11;;;;;;;2.60;1.23;;;13.20;99.90;;;;;;5078463;28;20224;-80
2021/10/04 05:11:37;;;;;;;1.13;1.00;;;13.20;99.90;;;;;;5077867;28;20583;-79
2021/10/04 05:14:02;;;;;;;1.00;0.80;;;13.20;99.90;;;;;;5079940;28;20589;-80
2021/10/04 05:16:28;;;;;;;2.17;0.80;;;13.20;99.90;;;;;;5079305;28;20192;-79
2021/10/04 05:18:54;;;;;;;1.40;0.97;;;13.10;99.90;;;;;;5079920;28;20200;-79
2021/10/04 05:21:20;;;;;;;1.20;1.10;;;13.10;99.90;;;;;;5077952;28;20204;-79
2021/10/04 05:23:45;;;;;;;1.23;1.00;;;13.00;99.90;;;;;;5079382;28;20250;-79
2021/10/04 05:26:11;;;;;;;1.17;0.90;;;13.10;99.90;;;;;;5080178;28;20252;-79
2021/10/04 05:28:37;;;;;;;1.00;0.90;;;13.10;99.90;;;;;;5078783;28;20192;-80
2021/10/04 05:31:03;;;;;;;1.03;0.93;;;13.00;99.90;;;;;;5077911;28;20180;-79
2021/10/04 05:33:28;;;;;;;1.03;0.73;;;13.00;99.90;;;;;;5075446;28;20192;-79
2021/10/04 05:35:54;;;;;;;3.60;0.93;;;13.00;99.90;;;;;;5074194;28;20287;-79
2021/10/04 05:38:20;;;;;;;2.27;1.30;;;13.00;99.90;;;;;;5076293;28;20567;-79
2021/10/04 05:40:46;;;;;;;4.47;1.10;;;13.00;99.90;;;;;;5077638;28;20204;-79
2021/10/04 05:43:11;;;;;;;7.50;1.30;;;12.90;99.90;;;;;;5076191;28;20642;-79
2021/10/04 05:45:37;;;;;;;2.50;0.87;;;12.90;99.90;;;;;;5074411;28;20647;-79
2021/10/04 05:48:03;;;;;;;2.23;0.90;;;12.90;99.90;;;;;;5075150;28;20283;-79
2021/10/04 05:50:29;;;;;;;4.53;1.10;;;12.90;99.90;;;;;;5077029;28;20539;-79
2021/10/04 05:52:55;;;;;;;1.60;1.13;;;13.00;99.90;;;;;;5077138;28;20169;-79
2021/10/04 05:55:21;;;;;;;4.00;1.03;;;12.90;99.90;;;;;;5075931;28;20177;-79
2021/10/04 05:57:46;;;;;;;4.27;1.13;;;12.90;99.90;;;;;;5076305;28;20205;-79
2021/10/04 06:00:15;;;;;;;4.30;1.00;;;13.00;99.90;;;;;;5077527;28;20185;-79
2021/10/04 06:02:41;;;;;;;5.50;1.40;;;12.90;99.90;;;;;;5076440;28;20226;-79
2021/10/04 06:05:08;;;;;;;5.53;1.50;;;12.90;99.90;;;;;;5075915;28;20173;-79
2021/10/04 06:07:34;;;;;;;2.47;1.40;;;12.90;99.90;;;;;;5076944;28;20224;-79
2021/10/04 06:10:00;;;;;;;10.63;2.13;;;12.90;99.90;;;;;;5076074;28;20261;-79
2021/10/04 06:12:26;;;;;;;5.83;1.50;;;12.80;99.90;;;;;;5077409;28;20182;-79
2021/10/04 06:14:57;;;;;;;13.47;3.20;;;12.80;99.90;;;;;;5075590;28;20203;-79
2021/10/04 06:17:23;;;;;;;3.10;1.90;;;12.80;99.90;;;;;;5077162;28;20286;-79
2021/10/04 06:19:49;;;;;;;3.87;1.77;;;12.80;99.90;;;;;;5077271;28;20169;-79
2021/10/04 06:22:15;;;;;;;1.90;1.60;;;12.90;99.90;;;;;;5077575;28;20292;-79
2021/10/04 06:24:41;;;;;;;1.43;1.33;;;12.90;99.90;;;;;;5076035;28;20242;-79
2021/10/04 06:27:06;;;;;;;3.90;1.37;;;12.90;99.90;;;;;;5076076;28;20177;-79
2021/10/04 06:29:32;;;;;;;6.53;1.63;;;12.90;99.90;;;;;;5078018;28;20223;-79
2021/10/04 06:31:58;;;;;;;6.63;2.00;;;12.90;99.90;;;;;;5076584;28;20549;-79
2021/10/04 06:34:24;;;;;;;6.03;2.03;;;13.00;99.90;;;;;;5077192;28;20235;-79
2021/10/04 06:36:49;;;;;;;10.33;2.07;;;13.00;99.90;;;;;;5077713;28;20181;-79
2021/10/04 06:39:15;;;;;;;4.03;2.00;;;13.00;99.90;;;;;;5077981;28;20722;-79
2021/10/04 06:41:41;;;;;;;3.30;1.80;;;13.00;99.90;;;;;;5079121;28;20289;-80
2021/10/04 06:44:09;;;;;;;2.47;1.50;;;12.90;99.90;;;;;;5078104;28;20169;-79
2021/10/04 06:46:36;;;;;;;1.80;1.47;;;12.80;99.90;;;;;;5078561;28;20186;-80
2021/10/04 06:49:02;;;;;;;3.90;1.60;;;12.80;99.90;;;;;;5080418;28;20550;-78
2021/10/04 06:51:27;;;;;;;2.17;1.50;;;12.80;99.90;;;;;;5075536;28;20172;-79
2021/10/04 06:53:53;;;;;;;1.57;1.23;;;12.80;99.90;;;;;;5073379;28;20185;-79
2021/10/04 06:56:19;;;;;;;2.10;1.30;;;12.70;99.90;;;;;;5074540;28;20180;-78
2021/10/04 06:58:44;;;;;;;3.47;1.40;;;12.70;99.90;;;;;;5073466;28;20299;-79
2021/10/04 07:01:10;;;;;;;1.93;1.50;;;12.70;99.90;;;;;;5077162;28;20224;-79
2021/10/04 07:03:36;;;;;;;3.27;1.50;;;12.70;99.90;;;;;;5075620;28;20185;-79
2021/10/04 07:06:02;;;;;;;1.90;1.50;;;12.60;99.90;;;;;;5075204;28;20736;-79
2021/10/04 07:08:28;;;;;;;3.73;1.50;;;12.70;99.90;;;;;;5076966;28;20251;-79
2021/10/04 07:10:53;;;;;;;5.07;1.53;;;12.70;99.90;;;;;;5076022;28;20189;-79
2021/10/04 07:13:19;;;;;;;4.90;2.00;;;12.80;99.90;;;;;;5075359;28;20185;-80
2021/10/04 07:15:45;;;;;;;8.43;2.37;;;12.80;99.90;;;;;;5075687;28;20229;-79
2021/10/04 07:18:10;;;;;;;7.37;1.97;;;12.80;99.90;;;;;;5075951;28;20674;-79
2021/10/04 07:20:36;;;;;;;7.07;1.70;;;12.80;99.90;;;;;;5076960;28;20208;-79
2021/10/04 07:23:04;;;;;;;2.30;1.50;;;12.80;99.90;;;;;;5077651;28;20222;-79
2021/10/04 07:25:31;;;;;;;4.60;2.53;;;12.90;99.90;;;;;;5077000;28;20165;-79
2021/10/04 07:27:57;;;;;;;4.90;1.57;;;12.90;99.90;;;;;;5077306;28;20596;-79
2021/10/04 07:30:23;;;;;;;3.60;2.13;;;12.90;99.90;;;;;;5075366;28;20188;-79
2021/10/04 07:32:49;;;;;;;13.63;2.07;;;12.90;99.90;;;;;;5077719;28;20253;-80
2021/10/04 07:35:16;;;;;;;12.13;1.73;;;12.90;99.90;;;;;;5075652;28;20181;-79
2021/10/04 07:37:42;;;;;;;5.43;1.93;;;12.80;99.90;;;;;;5076106;28;20196;-79
2021/10/04 07:40:09;;;;;;;7.43;2.87;;;12.80;99.90;;;;;;5076701;28;20238;-79
2021/10/04 07:42:35;;;;;;;13.67;2.20;;;12.80;99.90;;;;;;5076526;28;20280;-79
2021/10/04 07:45:02;;;;;;;5.17;1.57;;;12.70;99.90;;;;;;5076701;28;20692;-79
2021/10/04 07:47:27;;;;;;;5.57;1.87;;;12.70;99.90;;;;;;5076673;28;20200;-79
2021/10/04 07:49:53;;;;;;;3.53;1.70;;;12.60;99.90;;;;;;5075777;28;20178;-79
2021/10/04 07:52:19;;;;;;;3.90;1.30;;;12.60;99.90;;;;;;5076985;28;20180;-80
2021/10/04 07:54:45;;;;;;;7.13;1.00;;;12.60;99.90;;;;;;5077004;28;20181;-80
2021/10/04 07:57:13;;;;;;;2.77;1.40;;;12.60;99.90;;;;;;5075789;28;20643;-79
2021/10/04 07:59:41;;;;;;;4.60;1.60;;;12.60;99.90;;;;;;5077326;28;20274;-80
2021/10/04 08:02:08;;;;;;;6.20;1.70;;;12.60;99.90;;;;;;5075860;28;20226;-79
2021/10/04 08:04:34;;;;;;;4.70;1.50;;;12.60;99.90;;;;;;5076927;28;20196;-79
2021/10/04 08:07:00;;;;;;;7.20;1.10;;;12.70;99.90;;;;;;5076509;28;20172;-79
2021/10/04 08:09:26;;;;;;;2.70;1.10;;;12.70;99.90;;;;;;5075469;28;20264;-79
2021/10/04 08:11:51;;;;;;;2.13;1.00;;;12.70;99.90;;;;;;5074131;28;20181;-80
2021/10/04 08:14:17;;;;;;;2.37;1.20;;;12.60;99.90;;;;;;5076094;28;20232;-79
2021/10/04 08:16:43;;;;;;;1.73;1.30;;;12.60;99.90;;;;;;5081221;28;20261;-79
2021/10/04 08:19:09;;;;;;;5.10;1.70;;;12.60;99.90;;;;;;5079182;28;20200;-79
2021/10/04 08:21:35;;;;;;;2.83;1.50;;;12.60;99.90;;;;;;5079680;28;20216;-80
2021/10/04 08:24:01;;;;;;;5.50;2.10;;;12.70;99.90;;;;;;5080997;28;20172;-80
2021/10/04 08:26:28;;;;;;;2.10;1.70;;;12.70;99.90;;;;;;5079648;28;20241;-79
2021/10/04 08:28:53;;;;;;;4.57;1.60;;;12.70;99.90;;;;;;5079840;28;20270;-79
2021/10/04 08:31:20;;;;;;;6.27;1.93;;;12.70;99.90;;;;;;5079519;28;20642;-79
2021/10/04 08:33:46;;;;;;;3.30;1.50;;;12.70;99.90;;;;;;5080114;28;20189;-79
2021/10/04 08:36:12;;;;;;;8.17;1.83;;;12.70;99.90;;;;;;5080837;28;20177;-79
2021/10/04 08:38:37;;;;;;;2.97;1.80;;;12.70;99.90;;;;;;5080629;28;20230;-79
2021/10/04 08:41:03;;;;;;;5.37;1.90;;;12.70;99.90;;;;;;5080900;28;20215;-80
2021/10/04 08:43:30;;;;;;;7.90;2.10;;;12.70;99.90;;;;;;5079328;28;20192;-80
2021/10/04 08:45:59;;;;;;;6.03;2.13;;;12.70;99.90;;;;;;5080690;28;20169;-80
2021/10/04 08:48:26;;;;;;;4.47;1.90;;;12.70;99.90;;;;;;5079382;28;20204;-80
2021/10/04 08:50:52;;;;;;;6.07;1.57;;;12.70;99.90;;;;;;5079280;28;20210;-80
2021/10/04 08:53:17;;;;;;;3.33;1.90;;;12.70;99.90;;;;;;5079747;28;20309;-79
2021/10/04 08:55:43;;;;;;;3.23;1.73;;;12.70;99.90;;;;;;5080059;28;20185;-79
2021/10/04 08:58:10;;;;;;;1.90;1.70;;;12.70;99.90;;;;;;5080201;28;20654;-79
2021/10/04 09:00:36;;;;;;;5.07;2.07;;;12.70;99.90;;;;;;5083089;28;20196;-79
2021/10/04 09:03:04;;;;;;;2.40;2.17;;;12.70;99.90;;;;;;5082911;28;20173;-80
2021/10/04 09:05:30;;;;;;;2.17;1.90;;;12.70;99.90;;;;;;5078961;28;20535;-80
2021/10/04 09:08:12;;;;;;;2.60;2.30;;;12.60;99.90;;;;;;5079402;28;20219;-80
2021/10/04 09:10:41;;;;;;;2.60;2.27;;;12.60;99.90;;;;;;5080762;28;20520;-79
2021/10/04 09:13:15;;;;;;;3.03;2.13;;;12.50;99.90;;;;;;5081392;28;20199;-80
2021/10/04 09:15:47;;;;;;;2.90;2.60;;;12.40;99.90;;;;;;5080557;28;20662;-79
2021/10/04 09:18:27;;;;;;;3.77;2.37;;;12.40;99.90;;;;;;5081005;28;20735;-79
2021/10/04 09:20:56;;;;;;;2.80;2.43;;;12.40;99.90;;;;;;5077974;28;20227;-79
2021/10/04 09:23:44;;;;;;;3.37;2.60;;;12.40;99.90;;;;;;5079523;28;20594;-80
2021/10/04 09:26:30;;;;;;;2.67;2.37;;;12.30;99.90;;;;;;5078683;28;20630;-79
2021/10/04 09:29:03;;;;;;;3.13;2.83;;;12.30;99.90;;;;;;5078590;28;20563;-79
2021/10/04 09:31:31;;;;;;;4.63;3.57;;;12.30;99.90;;;;;;5077971;28;20201;-79
2021/10/04 09:34:17;;;;;;;2.97;2.77;;;12.30;99.90;;;;;;5077769;28;20188;-79
2021/10/04 09:36:45;;;;;;;5.07;3.23;;;12.30;99.90;;;;;;5078206;28;20162;-79
2021/10/04 09:39:26;;;;;;;3.80;3.20;;;12.20;99.90;;;;;;5077542;28;20197;-79
2021/10/04 09:41:56;;;;;;;3.27;2.97;;;12.10;99.90;;;;;;5077234;28;20254;-79
2021/10/04 09:44:23;;;;;;;4.47;3.70;;;12.20;99.90;;;;;;5076952;28;20176;-79
2021/10/04 09:46:49;;;;;;;4.30;3.77;;;12.10;99.90;;;;;;5077170;28;20175;-79
2021/10/04 09:49:15;;;;;;;3.50;3.20;;;12.00;99.90;;;;;;5077173;28;20193;-79
2021/10/04 09:51:54;;;;;;;4.57;3.43;;;11.90;99.90;;;;;;5074812;28;20265;-79
2021/10/04 09:54:20;;;;;;;3.83;3.43;;;11.90;99.90;;;;;;5075229;28;20169;-78
2021/10/04 09:56:46;;;;;;;3.63;2.90;;;12.00;99.90;;;;;;5074928;28;20180;-79
2021/10/04 09:59:12;;;;;;;2.77;2.57;;;12.00;99.90;;;;;;5077649;28;20227;-79
2021/10/04 10:01:38;;;;;;;4.97;2.87;;;11.90;99.90;;;;;;5079183;28;20207;-79
2021/10/04 10:04:05;;;;;;;3.40;2.93;;;12.10;99.90;;;;;;5077962;28;20638;-79
2021/10/04 10:06:34;;;;;;;3.63;2.90;;;12.10;99.90;;;;;;5077864;28;20211;-80
2021/10/04 10:09:00;;;;;;;4.50;3.60;;;12.10;99.90;;;;;;5079682;28;20246;-80
2021/10/04 10:11:31;;;;;;;4.07;3.30;;;12.20;99.90;;;;;;5078527;28;20184;-79
2021/10/04 10:13:57;;;;;;;4.33;2.90;;;12.20;99.90;;;;;;5081705;28;20157;-79
2021/10/04 10:16:36;;;;;;;7.03;2.97;;;12.30;99.90;;;;;;5079924;28;20199;-79
2021/10/04 10:19:10;;;;;;;6.20;3.43;;;12.30;99.90;;;;;;5080109;28;20254;-79
2021/10/04 10:21:38;;;;;;;4.73;3.47;;;12.40;99.90;;;;;;5082575;28;20286;-79
2021/10/04 10:24:09;;;;;;;3.13;2.87;;;12.50;99.90;;;;;;5083318;28;20253;-79
2021/10/04 10:26:41;;;;;;;3.37;3.07;;;12.60;99.90;;;;;;5085285;28;20227;-79
2021/10/04 10:29:21;;;;;;;3.40;3.10;;;12.70;99.90;;;;;;5086779;28;20541;-79
2021/10/04 10:31:55;;;;;;;5.27;3.23;;;12.70;99.90;;;;;;5079552;28;20180;-79
2021/10/04 10:34:26;;;;;;;5.80;3.30;;;12.70;99.90;;;;;;5077220;28;20227;-79
2021/10/04 10:37:11;;;;;;;3.43;3.10;;;12.70;99.90;;;;;;5077214;28;20185;-79
2021/10/04 10:39:55;;;;;;;4.27;3.47;;;12.80;99.90;;;;;;5077449;28;20165;-80
2021/10/04 10:42:31;;;;;;;3.10;2.83;;;12.80;99.90;;;;;;5078978;28;20188;-80
2021/10/04 10:44:56;;;;;;;4.77;2.93;;;12.90;99.90;;;;;;5078795;28;20157;-79
2021/10/04 10:47:37;;;;;;;3.40;3.10;;;12.90;99.90;;;;;;5077190;28;20681;-79
2021/10/04 10:50:08;;;;;;;4.00;3.20;;;12.90;99.90;;;;;;5078928;28;20177;-80
2021/10/04 10:52:44;;;;;;;4.00;3.37;;;12.90;99.90;;;;;;5077550;28;20196;-80
2021/10/04 10:55:19;;;;;;;4.90;4.50;;;12.80;99.90;;;;;;5079103;28;20169;-79
2021/10/04 10:57:57;;;;;;;5.60;5.10;;;12.70;99.90;;;;;;5078909;28;20196;-79
2021/10/04 11:00:30;;;;;;;3.97;3.10;;;12.60;99.90;;;;;;5078405;28;20255;-80
2021/10/04 11:03:05;;;;;;;5.17;2.97;;;12.50;99.90;;;;;;5078574;28;20173;-79
2021/10/04 11:05:40;;;;;;;3.07;2.87;;;12.30;99.90;;;;;;5079613;28;20168;-79
2021/10/04 11:08:14;;;;;;;3.00;2.80;;;12.20;99.90;;;;;;5096821;28;20203;-79
2021/10/04 11:10:52;;;;;;;2.83;2.63;;;12.20;99.90;;;;;;5075478;28;20539;-79
2021/10/04 11:13:28;;;;;;;2.97;2.77;;;12.20;99.90;;;;;;5078918;28;20176;-79
2021/10/04 11:16:09;;;;;;;3.40;2.60;;;12.20;99.90;;;;;;5078756;28;20207;-79
2021/10/04 11:18:36;;;;;;;3.90;2.50;;;12.20;99.90;;;;;;5076698;28;20211;-79
2021/10/04 11:21:06;;;;;;;2.90;2.70;;;12.20;99.90;;;;;;5077967;28;20204;-78
2021/10/04 11:23:32;;;;;;;4.17;2.83;;;12.10;99.90;;;;;;5082416;28;20173;-78
2021/10/04 11:25:58;;;;;;;3.30;3.00;;;12.20;99.90;;;;;;5081204;28;20173;-80
2021/10/04 11:28:27;;;;;;;4.73;3.10;;;12.20;99.90;;;;;;5083470;28;20200;-80
2021/10/04 11:30:59;;;;;;;5.03;2.90;;;12.10;99.90;;;;;;5083926;28;20176;-80
2021/10/04 11:33:27;;;;;;;2.90;2.70;;;12.20;99.90;;;;;;5097387;28;20606;-80
2021/10/04 11:36:21;;;;;;;3.20;2.90;;;12.10;99.90;;;;;;5083449;28;20177;-81
2021/10/04 11:38:55;;;;;;;4.77;2.17;;;12.10;99.90;;;;;;5077731;28;20295;-80
2021/10/04 11:41:41;;;;;;;2.80;2.60;;;12.00;99.90;;;;;;5079479;28;20192;-80
2021/10/04 11:44:19;;;;;;;2.40;2.20;;;11.90;99.90;;;;;;5076808;28;20223;-80
2021/10/04 11:46:51;;;;;;;2.60;2.40;;;11.90;99.90;;;;;;5076065;28;20248;-80
2021/10/04 11:49:23;;;;;;;3.07;2.27;;;11.80;99.90;;;;;;5088906;28;20208;-80
2021/10/04 11:51:52;;;;;;;2.40;2.20;;;11.80;99.90;;;;;;5095059;28;20173;-80
2021/10/04 11:54:42;;;;;;;3.60;2.43;;;11.80;99.90;;;;;;5084255;28;20650;-80
2021/10/04 11:57:14;;;;;;;2.47;2.27;;;11.80;99.90;;;;;;5080215;28;20184;-80
2021/10/04 11:59:56;;;;;;;3.10;2.50;;;11.80;99.90;;;;;;5082122;28;20177;-80
2021/10/04 12:02:28;;;;;;;3.03;2.73;;;11.80;99.90;;;;;;5080784;28;20239;-80
2021/10/04 12:05:12;;;;;;;5.30;2.33;;;11.70;99.90;;;;;;5081019;28;20230;-81
2021/10/04 12:07:57;;;;;;;2.50;2.30;;;11.70;99.90;;;;;;5082165;28;20197;-81
2021/10/04 12:10:23;;;;;;;1.97;1.60;;;11.70;99.90;;;;;;5082974;28;20221;-81
2021/10/04 12:12:49;;;;;;;4.53;2.37;;;11.60;99.90;;;;;;5081198;28;20177;-80
2021/10/04 12:15:14;;;;;;;2.53;2.33;;;11.50;99.90;;;;;;5079908;28;20212;-80
2021/10/04 12:17:40;;;;;;;1.70;1.60;;;11.40;99.90;;;;;;5097614;28;20197;-80
2021/10/04 12:20:19;;;;;;;1.53;1.43;;;11.30;99.90;;;;;;5097454;28;20592;-80
2021/10/04 12:22:45;;;;;;;1.80;1.70;;;11.20;99.90;;;;;;5080502;28;20187;-80
2021/10/04 12:25:24;;;;;;;1.77;1.50;;;11.20;99.90;;;;;;5094286;28;20644;-80
2021/10/04 12:28:04;;;;;;;2.57;2.00;;;11.20;99.90;;;;;;5078581;28;20188;-79
2021/10/04 12:30:48;;;;;;;1.43;1.20;;;11.20;99.90;;;;;;5077121;28;20191;-79
2021/10/04 12:33:15;;;;;;;1.67;1.13;;;11.10;99.90;;;;;;5077913;28;20161;-80
2021/10/04 12:35:41;;;;;;;1.27;1.17;;;11.10;99.90;;;;;;5090061;28;20173;-79
2021/10/04 12:38:10;;;;;;;0.93;0.93;;;11.20;99.90;;;;;;5090876;28;20224;-79
2021/10/04 12:40:44;;;;;;;1.30;1.00;;;11.20;99.90;;;;;;5091069;28;20200;-80
2021/10/04 12:43:14;;;;;;;1.20;0.90;;;11.20;99.90;;;;;;5089351;28;20200;-80
2021/10/04 12:45:51;;;;;;;1.83;1.00;;;11.10;99.90;;;;;;5079878;28;20214;-80
2021/10/04 12:48:18;;;;;;;0.97;0.83;;;11.10;99.90;;;;;;5079759;28;20192;-80
2021/10/04 12:50:45;;;;;;;0.97;0.90;;;11.20;99.90;;;;;;5080025;28;20192;-80